Time;durP1;ratioP1;P1;durP2;ratioP2;P2;SDS_P1;SDS_P2;PMS_P1;PMS_P2;Temp;Humidity;BMP_temperature;BMP_pressure;BME280_temperature;BME280_humidity;BME280_pressure;Samples;Min_cycle;Max_cycle;Signal;HPM_P1;HPM_P2
2023/06/29 00:00:28;;;;;;;;;;;20.80;73.10;;;;;;5110536;28;19911;-70
2023/06/29 00:02:54;;;;;;;;;;;20.80;73.00;;;;;;5111945;28;19919;-70
2023/06/29 00:05:21;;;;;;;;;;;20.80;73.20;;;;;;5110074;28;20026;-71
2023/06/29 00:07:47;;;;;;;;;;;20.80;73.20;;;;;;5122230;27;20275;-71
2023/06/29 00:10:13;;;;;;;;;;;20.80;73.00;;;;;;5132487;27;19908;-70
2023/06/29 00:12:38;;;;;;;;;;;20.80;73.10;;;;;;5111201;27;19916;-71
2023/06/29 00:15:04;;;;;;;;;;;20.80;73.10;;;;;;5111574;28;19916;-71
2023/06/29 00:17:30;;;;;;;;;;;20.80;73.20;;;;;;5111465;28;19947;-70
2023/06/29 00:19:56;;;;;;;;;;;20.80;73.20;;;;;;5111553;28;20002;-70
2023/06/29 00:22:22;;;;;;;;;;;20.80;73.30;;;;;;5111588;28;19920;-70
2023/06/29 00:24:55;;;;;;;;;;;20.70;73.10;;;;;;5111708;28;20317;-70
2023/06/29 00:27:21;;;;;;;;;;;20.80;73.10;;;;;;5111360;28;20002;-70
2023/06/29 00:29:46;;;;;;;;;;;20.70;73.20;;;;;;5111430;28;20486;-70
2023/06/29 00:32:12;;;;;;;;;;;20.70;73.20;;;;;;5111243;28;19924;-70
2023/06/29 00:34:38;;;;;;;;;;;20.70;73.20;;;;;;5111390;28;19947;-71
2023/06/29 00:37:04;;;;;;;;;;;20.70;73.20;;;;;;5111250;28;19960;-70
2023/06/29 00:39:30;;;;;;;;;;;20.70;72.90;;;;;;5111445;28;20005;-70
2023/06/29 00:41:55;;;;;;;;;;;20.70;73.10;;;;;;5111351;28;20005;-70
2023/06/29 00:44:21;;;;;;;;;;;20.70;73.30;;;;;;5111161;28;20332;-71
2023/06/29 00:46:48;;;;;;;;;;;20.70;73.30;;;;;;5109505;28;19918;-71
2023/06/29 00:49:13;;;;;;;;;;;20.70;73.20;;;;;;5111080;28;20439;-70
2023/06/29 00:51:39;;;;;;;;;;;20.70;73.30;;;;;;5111070;28;19916;-70
2023/06/29 00:54:05;;;;;;;;;;;20.70;73.20;;;;;;5111205;28;20006;-70
2023/06/29 00:56:32;;;;;;;;;;;20.70;73.30;;;;;;5110812;28;19919;-71
2023/06/29 00:58:57;;;;;;;;;;;20.70;73.30;;;;;;5110971;28;19960;-71
2023/06/29 01:01:22;;;;;;;;;;;20.70;73.10;;;;;;5110848;28;19911;-70
2023/06/29 01:03:48;;;;;;;;;;;20.60;73.30;;;;;;5110608;28;19919;-70
2023/06/29 01:06:16;;;;;;;;;;;20.70;73.40;;;;;;5108951;28;19911;-71
2023/06/29 01:08:44;;;;;;;;;;;20.60;73.20;;;;;;5110956;28;19957;-70
2023/06/29 01:11:10;;;;;;;;;;;20.60;73.30;;;;;;5109766;28;19923;-71
2023/06/29 01:13:36;;;;;;;;;;;20.60;73.20;;;;;;5104934;28;20373;-71
2023/06/29 01:16:02;;;;;;;;;;;20.60;73.30;;;;;;5108842;28;19912;-71
2023/06/29 01:18:30;;;;;;;;;;;20.60;73.30;;;;;;5110349;28;19912;-70
2023/06/29 01:20:55;;;;;;;;;;;20.60;73.40;;;;;;5110671;28;19969;-70
2023/06/29 01:23:25;;;;;;;;;;;20.60;73.40;;;;;;5109940;27;19924;-70
2023/06/29 01:25:51;;;;;;;;;;;20.60;73.30;;;;;;5110353;28;19923;-71
2023/06/29 01:28:17;;;;;;;;;;;20.60;73.40;;;;;;5109806;28;19915;-71
2023/06/29 01:30:49;;;;;;;;;;;20.60;73.30;;;;;;5109160;28;19916;-70
2023/06/29 01:33:22;;;;;;;;;;;20.60;73.20;;;;;;5110158;28;19908;-71
2023/06/29 01:35:48;;;;;;;;;;;20.50;73.40;;;;;;5110134;28;19918;-70
2023/06/29 01:38:36;;;;;;;;;;;20.60;73.50;;;;;;5110020;28;19998;-71
2023/06/29 01:41:04;;;;;;;;;;;20.50;73.40;;;;;;5110315;28;19952;-70
2023/06/29 01:43:30;;;;;;;;;;;20.50;73.40;;;;;;5110159;28;19964;-71
2023/06/29 01:45:57;;;;;;;;;;;20.50;73.50;;;;;;5109888;28;20296;-70
2023/06/29 01:48:22;;;;;;;;;;;20.50;73.50;;;;;;5109862;28;19912;-70
2023/06/29 01:50:48;;;;;;;;;;;20.50;73.50;;;;;;5109789;28;20003;-70
2023/06/29 01:53:14;;;;;;;;;;;20.50;73.50;;;;;;5109938;28;19934;-70
2023/06/29 01:55:39;;;;;;;;;;;20.50;73.50;;;;;;5108040;28;20638;-70
2023/06/29 01:58:05;;;;;;;;;;;20.50;73.60;;;;;;5109606;28;20003;-71
2023/06/29 02:00:30;;;;;;;;;;;20.50;73.60;;;;;;5109958;28;19915;-70
2023/06/29 02:02:56;;;;;;;;;;;20.40;73.50;;;;;;5108290;28;19918;-70
2023/06/29 02:05:22;;;;;;;;;;;20.40;73.60;;;;;;5107833;28;20432;-70
2023/06/29 02:07:47;;;;;;;;;;;20.40;73.60;;;;;;5120608;27;20491;-70
2023/06/29 02:10:13;;;;;;;;;;;20.40;73.40;;;;;;5130477;27;19911;-70
2023/06/29 02:12:40;;;;;;;;;;;20.40;73.50;;;;;;5116352;27;19923;-71
2023/06/29 02:15:06;;;;;;;;;;;20.40;73.60;;;;;;5109181;28;19919;-70
2023/06/29 02:17:31;;;;;;;;;;;20.40;73.60;;;;;;5109541;28;20379;-70
2023/06/29 02:19:57;;;;;;;;;;;20.30;73.50;;;;;;5108219;28;19947;-71
2023/06/29 02:22:22;;;;;;;;;;;20.30;73.60;;;;;;5109245;28;19950;-72
2023/06/29 02:24:48;;;;;;;;;;;20.30;73.70;;;;;;5108074;28;19919;-71
2023/06/29 02:27:13;;;;;;;;;;;20.30;73.60;;;;;;5109064;28;19911;-71
2023/06/29 02:29:39;;;;;;;;;;;20.30;73.70;;;;;;5109466;28;19912;-70
2023/06/29 02:32:04;;;;;;;;;;;20.30;73.70;;;;;;5105927;27;19919;-70
2023/06/29 02:34:30;;;;;;;;;;;20.30;73.80;;;;;;5102734;27;19990;-70
2023/06/29 02:36:55;;;;;;;;;;;20.30;73.80;;;;;;5104999;28;20292;-70
2023/06/29 02:39:21;;;;;;;;;;;20.30;73.80;;;;;;5108824;28;19920;-70
2023/06/29 02:41:46;;;;;;;;;;;20.30;73.80;;;;;;5108733;28;19911;-70
2023/06/29 02:44:12;;;;;;;;;;;20.30;73.90;;;;;;5108777;28;19964;-70
2023/06/29 02:46:37;;;;;;;;;;;20.30;73.90;;;;;;5108314;28;19908;-70
2023/06/29 02:49:03;;;;;;;;;;;20.30;73.90;;;;;;5108791;28;19915;-70
2023/06/29 02:51:28;;;;;;;;;;;20.30;74.60;;;;;;5108441;28;19916;-70
2023/06/29 02:53:54;;;;;;;;;;;20.20;73.90;;;;;;5101405;28;20393;-70
2023/06/29 02:56:19;;;;;;;;;;;20.20;74.10;;;;;;5108365;28;19911;-70
2023/06/29 02:58:45;;;;;;;;;;;20.20;73.90;;;;;;5108761;28;19919;-70
2023/06/29 03:01:10;;;;;;;;;;;20.20;73.90;;;;;;5108456;28;19912;-71
2023/06/29 03:03:36;;;;;;;;;;;20.20;74.00;;;;;;5108563;28;19912;-71
2023/06/29 03:06:02;;;;;;;;;;;20.20;74.10;;;;;;5106545;28;19908;-70
2023/06/29 03:08:27;;;;;;;;;;;20.20;74.10;;;;;;5107021;28;19908;-70
2023/06/29 03:10:53;;;;;;;;;;;20.20;74.00;;;;;;5107934;28;19912;-70
2023/06/29 03:13:18;;;;;;;;;;;20.20;74.00;;;;;;5089004;28;19912;-70
2023/06/29 03:15:44;;;;;;;;;;;20.20;74.20;;;;;;5087330;28;19952;-70
2023/06/29 03:18:09;;;;;;;;;;;20.20;74.10;;;;;;5086729;28;19939;-70
2023/06/29 03:20:35;;;;;;;;;;;20.10;74.20;;;;;;5087798;28;19951;-70
2023/06/29 03:23:01;;;;;;;;;;;20.20;74.10;;;;;;5086617;28;19919;-70
2023/06/29 03:25:26;;;;;;;;;;;20.10;74.00;;;;;;5087858;28;19973;-70
2023/06/29 03:27:52;;;;;;;;;;;20.20;74.10;;;;;;5088076;28;19912;-71
2023/06/29 03:30:17;;;;;;;;;;;20.10;74.10;;;;;;5091558;28;20007;-71
2023/06/29 03:32:43;;;;;;;;;;;20.20;74.10;;;;;;5108130;28;19911;-70
2023/06/29 03:35:08;;;;;;;;;;;20.10;74.10;;;;;;5108164;28;19911;-70
2023/06/29 03:37:34;;;;;;;;;;;20.10;74.00;;;;;;5107526;28;20407;-70
2023/06/29 03:39:59;;;;;;;;;;;20.10;74.10;;;;;;5108029;28;20337;-71
2023/06/29 03:42:25;;;;;;;;;;;20.10;74.30;;;;;;5108321;28;19918;-70
2023/06/29 03:44:51;;;;;;;;;;;20.10;74.10;;;;;;5108125;28;20298;-71
2023/06/29 03:47:17;;;;;;;;;;;20.10;74.00;;;;;;5110447;28;20008;-70
2023/06/29 03:49:42;;;;;;;;;;;20.10;74.10;;;;;;5110754;28;20474;-70
2023/06/29 03:52:08;;;;;;;;;;;20.10;74.20;;;;;;5111747;28;19942;-71
2023/06/29 03:54:33;;;;;;;;;;;20.10;74.10;;;;;;5110616;28;19912;-71
2023/06/29 03:56:59;;;;;;;;;;;20.10;74.10;;;;;;5111462;27;19969;-70
2023/06/29 03:59:25;;;;;;;;;;;20.10;74.20;;;;;;5110208;28;19981;-71
2023/06/29 04:01:50;;;;;;;;;;;20.20;74.20;;;;;;5111534;28;20388;-70
2023/06/29 04:04:16;;;;;;;;;;;20.10;74.10;;;;;;5111516;28;19911;-70
2023/06/29 04:06:41;;;;;;;;;;;20.20;74.20;;;;;;5109672;28;19912;-71
2023/06/29 04:09:07;;;;;;;;;;;20.10;74.30;;;;;;5111719;28;19969;-71
2023/06/29 04:11:32;;;;;;;;;;;20.10;74.20;;;;;;5121907;27;20002;-70
2023/06/29 04:13:58;;;;;;;;;;;20.10;74.30;;;;;;5110110;28;20427;-70
2023/06/29 04:16:23;;;;;;;;;;;20.20;74.30;;;;;;5110906;28;20336;-70
2023/06/29 04:18:49;;;;;;;;;;;20.20;74.30;;;;;;5110183;28;19912;-70
2023/06/29 04:21:14;;;;;;;;;;;20.10;74.20;;;;;;5109857;28;20649;-70
2023/06/29 04:23:40;;;;;;;;;;;20.20;74.30;;;;;;5111410;28;19963;-70
2023/06/29 04:26:07;;;;;;;;;;;20.20;74.30;;;;;;5111105;28;19912;-71
2023/06/29 04:28:34;;;;;;;;;;;20.20;74.30;;;;;;5111109;28;19953;-71
2023/06/29 04:31:00;;;;;;;;;;;20.10;74.20;;;;;;5111057;28;19916;-70
2023/06/29 04:33:25;;;;;;;;;;;20.10;74.40;;;;;;5111378;28;20281;-71
2023/06/29 04:35:51;;;;;;;;;;;20.20;74.30;;;;;;5111143;28;19912;-70
2023/06/29 04:38:17;;;;;;;;;;;20.20;74.40;;;;;;5104912;28;19912;-70
2023/06/29 04:40:43;;;;;;;;;;;20.20;74.50;;;;;;5110730;28;19912;-70
2023/06/29 04:43:09;;;;;;;;;;;20.20;74.40;;;;;;5109786;28;19919;-70
2023/06/29 04:45:34;;;;;;;;;;;20.20;74.60;;;;;;5110884;28;19912;-70
2023/06/29 04:48:00;;;;;;;;;;;20.20;74.60;;;;;;5109879;28;19912;-70
2023/06/29 04:50:30;;;;;;;;;;;20.20;74.70;;;;;;5110713;28;19912;-70
2023/06/29 04:52:57;;;;;;;;;;;20.20;74.70;;;;;;5111235;28;19918;-70
2023/06/29 04:55:22;;;;;;;;;;;20.20;74.70;;;;;;5109513;28;19908;-70
2023/06/29 04:57:48;;;;;;;;;;;20.20;74.80;;;;;;5109029;28;19915;-69
2023/06/29 05:00:14;;;;;;;;;;;20.20;74.90;;;;;;5110678;28;19916;-70
2023/06/29 05:02:40;;;;;;;;;;;20.30;74.80;;;;;;5110657;28;19968;-70
2023/06/29 05:05:06;;;;;;;;;;;20.20;74.80;;;;;;5108931;28;19915;-70
2023/06/29 05:07:31;;;;;;;;;;;20.20;74.80;;;;;;5110739;28;19915;-70
2023/06/29 05:09:58;;;;;;;;;;;20.30;74.90;;;;;;5110786;28;19908;-70
2023/06/29 05:12:24;;;;;;;;;;;20.20;74.90;;;;;;5110621;28;20335;-70
2023/06/29 05:14:49;;;;;;;;;;;20.30;74.80;;;;;;5110570;28;20276;-70
2023/06/29 05:17:15;;;;;;;;;;;20.30;75.00;;;;;;5110163;28;19911;-70
2023/06/29 05:19:40;;;;;;;;;;;20.30;75.00;;;;;;5110739;28;19911;-70
2023/06/29 05:22:06;;;;;;;;;;;20.30;74.90;;;;;;5110269;28;19912;-70
2023/06/29 05:24:31;;;;;;;;;;;20.30;75.00;;;;;;5110414;28;19919;-70
2023/06/29 05:26:57;;;;;;;;;;;20.30;75.00;;;;;;5110096;28;20354;-70
2023/06/29 05:29:22;;;;;;;;;;;20.30;75.00;;;;;;5110406;28;19912;-70
2023/06/29 05:31:48;;;;;;;;;;;20.30;75.10;;;;;;5110157;28;19916;-70
2023/06/29 05:34:13;;;;;;;;;;;20.30;75.10;;;;;;5103474;28;19930;-71
2023/06/29 05:36:39;;;;;;;;;;;20.30;75.10;;;;;;5109678;28;19962;-71
2023/06/29 05:39:05;;;;;;;;;;;20.30;75.10;;;;;;5108240;28;20003;-70
2023/06/29 05:41:30;;;;;;;;;;;20.30;75.20;;;;;;5108188;28;20607;-71
2023/06/29 05:43:56;;;;;;;;;;;20.40;75.10;;;;;;5110082;28;19911;-71
2023/06/29 05:46:22;;;;;;;;;;;20.40;75.10;;;;;;5109592;28;20364;-70
2023/06/29 05:48:47;;;;;;;;;;;20.40;75.10;;;;;;5109947;28;19912;-70
2023/06/29 05:51:13;;;;;;;;;;;20.40;75.10;;;;;;5109715;28;20460;-70
2023/06/29 05:53:38;;;;;;;;;;;20.40;75.10;;;;;;5108118;28;20325;-70
2023/06/29 05:56:04;;;;;;;;;;;20.40;75.10;;;;;;5109480;28;19916;-70
2023/06/29 05:58:29;;;;;;;;;;;20.40;75.10;;;;;;5109765;28;19912;-71
2023/06/29 06:00:55;;;;;;;;;;;20.50;75.20;;;;;;5109658;28;20569;-70
2023/06/29 06:03:22;;;;;;;;;;;20.50;75.10;;;;;;5108162;28;19972;-71
2023/06/29 06:05:47;;;;;;;;;;;20.50;75.10;;;;;;5109138;28;19956;-71
2023/06/29 06:08:13;;;;;;;;;;;20.50;75.20;;;;;;5108038;28;20229;-70
2023/06/29 06:10:39;;;;;;;;;;;20.60;75.20;;;;;;5109510;28;19916;-71
2023/06/29 06:13:05;;;;;;;;;;;20.60;75.30;;;;;;5109169;28;19912;-70
2023/06/29 06:15:30;;;;;;;;;;;20.60;75.20;;;;;;5108594;27;20265;-70
2023/06/29 06:17:56;;;;;;;;;;;20.70;75.20;;;;;;5127638;27;19911;-70
2023/06/29 06:20:21;;;;;;;;;;;20.70;75.10;;;;;;5129373;27;20014;-70
2023/06/29 06:22:47;;;;;;;;;;;20.70;75.00;;;;;;5129066;27;19915;-70
2023/06/29 06:25:15;;;;;;;;;;;20.70;75.00;;;;;;5128681;27;19911;-70
2023/06/29 06:27:41;;;;;;;;;;;20.70;75.00;;;;;;5129048;27;20582;-70
2023/06/29 06:30:07;;;;;;;;;;;20.70;75.00;;;;;;5129651;27;20352;-70
2023/06/29 06:32:33;;;;;;;;;;;20.70;74.80;;;;;;5105894;28;20343;-70
2023/06/29 06:34:58;;;;;;;;;;;20.80;74.90;;;;;;5107548;28;19965;-70
2023/06/29 06:37:24;;;;;;;;;;;20.80;74.90;;;;;;5108916;28;20477;-70
2023/06/29 06:39:49;;;;;;;;;;;20.90;74.80;;;;;;5109181;28;20644;-71
2023/06/29 06:42:15;;;;;;;;;;;20.90;74.80;;;;;;5108448;28;19911;-70
2023/06/29 06:44:54;;;;;;;;;;;20.90;74.70;;;;;;5108990;28;20333;-70
2023/06/29 06:47:20;;;;;;;;;;;21.00;74.50;;;;;;5109054;28;19912;-70
2023/06/29 06:49:46;;;;;;;;;;;21.00;74.60;;;;;;5109043;28;19935;-70
2023/06/29 06:52:12;;;;;;;;;;;21.00;74.40;;;;;;5108833;28;19916;-71
2023/06/29 06:54:37;;;;;;;;;;;21.10;74.60;;;;;;5108925;28;19919;-70
2023/06/29 06:57:03;;;;;;;;;;;21.10;74.40;;;;;;5108668;28;19908;-71
2023/06/29 06:59:28;;;;;;;;;;;21.10;74.50;;;;;;5108872;28;20678;-70
2023/06/29 07:01:54;;;;;;;;;;;21.20;74.40;;;;;;5107402;28;19911;-70
2023/06/29 07:04:19;;;;;;;;;;;21.20;74.10;;;;;;5108865;28;19934;-70
2023/06/29 07:06:46;;;;;;;;;;;21.30;74.20;;;;;;5108294;28;19919;-71
2023/06/29 07:09:12;;;;;;;;;;;21.30;73.80;;;;;;5108702;28;19912;-70
2023/06/29 07:11:37;;;;;;;;;;;21.40;73.80;;;;;;5103818;28;19923;-70
2023/06/29 07:14:03;;;;;;;;;;;21.40;73.80;;;;;;5088359;28;19908;-70
2023/06/29 07:16:29;;;;;;;;;;;21.40;73.50;;;;;;5087973;28;19912;-71
2023/06/29 07:19:02;;;;;;;;;;;21.50;73.60;;;;;;5088478;28;19934;-71
2023/06/29 07:21:28;;;;;;;;;;;21.50;73.70;;;;;;5089215;28;20025;-71
2023/06/29 07:23:54;;;;;;;;;;;21.50;73.80;;;;;;5092300;28;19920;-71
2023/06/29 07:26:19;;;;;;;;;;;21.60;73.60;;;;;;5110077;28;19912;-71
2023/06/29 07:28:45;;;;;;;;;;;21.60;73.70;;;;;;5112490;28;19912;-70
2023/06/29 07:31:10;;;;;;;;;;;21.60;73.40;;;;;;5111044;28;19915;-70
2023/06/29 07:33:36;;;;;;;;;;;21.70;73.50;;;;;;5110922;28;20002;-70
2023/06/29 07:36:02;;;;;;;;;;;21.70;73.40;;;;;;5112139;28;19908;-71
2023/06/29 07:38:27;;;;;;;;;;;21.70;73.20;;;;;;5110939;28;19908;-70
2023/06/29 07:40:52;;;;;;;;;;;21.70;73.10;;;;;;5112229;28;19985;-71
2023/06/29 07:43:18;;;;;;;;;;;21.80;73.00;;;;;;5111786;28;19919;-71
2023/06/29 07:45:44;;;;;;;;;;;21.80;73.10;;;;;;5111574;28;19931;-71
2023/06/29 07:48:09;;;;;;;;;;;21.80;73.00;;;;;;5112300;28;20421;-71
2023/06/29 07:50:35;;;;;;;;;;;21.80;72.90;;;;;;5112083;28;19916;-71
2023/06/29 07:53:00;;;;;;;;;;;21.80;73.00;;;;;;5112277;28;19911;-70
2023/06/29 07:55:26;;;;;;;;;;;21.90;73.00;;;;;;5111238;28;19915;-70
2023/06/29 07:57:51;;;;;;;;;;;21.90;73.00;;;;;;5112064;28;20531;-70
2023/06/29 08:00:17;;;;;;;;;;;21.90;72.80;;;;;;5111903;28;19911;-70
2023/06/29 08:02:43;;;;;;;;;;;21.90;73.00;;;;;;5112032;28;20284;-70
2023/06/29 08:05:09;;;;;;;;;;;21.90;72.90;;;;;;5111645;28;19918;-71
2023/06/29 08:07:35;;;;;;;;;;;21.90;72.90;;;;;;5111814;28;20023;-70
2023/06/29 08:10:00;;;;;;;;;;;21.90;72.70;;;;;;5111531;27;19947;-70
2023/06/29 08:12:26;;;;;;;;;;;21.90;72.80;;;;;;5120030;27;20300;-70
2023/06/29 08:14:51;;;;;;;;;;;21.90;73.10;;;;;;5111837;28;20420;-71
2023/06/29 08:17:16;;;;;;;;;;;21.90;72.80;;;;;;5111671;28;19919;-71
2023/06/29 08:19:42;;;;;;;;;;;21.90;72.90;;;;;;5111704;28;19912;-70
2023/06/29 08:22:08;;;;;;;;;;;21.90;73.00;;;;;;5111539;28;19912;-70
2023/06/29 08:24:33;;;;;;;;;;;21.90;73.00;;;;;;5111770;28;19912;-70
2023/06/29 08:26:59;;;;;;;;;;;21.90;73.00;;;;;;5111254;28;20022;-71
2023/06/29 08:29:24;;;;;;;;;;;21.90;73.00;;;;;;5106437;28;19939;-71
2023/06/29 08:31:50;;;;;;;;;;;21.90;73.00;;;;;;5107189;28;19920;-71
2023/06/29 08:34:16;;;;;;;;;;;21.90;73.30;;;;;;5110058;28;19919;-70
2023/06/29 08:36:41;;;;;;;;;;;22.00;73.10;;;;;;5110909;28;19911;-71
2023/06/29 08:39:08;;;;;;;;;;;22.10;73.10;;;;;;5111354;28;20007;-70
2023/06/29 08:41:34;;;;;;;;;;;22.00;73.00;;;;;;5109661;28;20376;-71
2023/06/29 08:44:01;;;;;;;;;;;22.10;73.00;;;;;;5111304;28;19926;-70
2023/06/29 08:46:27;;;;;;;;;;;22.20;73.10;;;;;;5110657;28;19912;-70
2023/06/29 08:48:54;;;;;;;;;;;22.20;73.00;;;;;;5110987;28;19908;-71
2023/06/29 08:51:21;;;;;;;;;;;22.30;72.90;;;;;;5110853;28;19968;-71
2023/06/29 08:53:47;;;;;;;;;;;22.30;72.80;;;;;;5111031;28;19915;-71
2023/06/29 08:56:13;;;;;;;;;;;22.30;72.70;;;;;;5109340;28;19915;-71
2023/06/29 08:58:39;;;;;;;;;;;22.40;72.60;;;;;;5110834;28;19911;-71
2023/06/29 09:01:06;;;;;;;;;;;22.40;72.50;;;;;;5110712;27;19912;-71
2023/06/29 09:03:32;;;;;;;;;;;22.40;72.50;;;;;;5110683;28;19912;-71
2023/06/29 09:05:57;;;;;;;;;;;22.40;72.40;;;;;;5110257;28;19915;-71
2023/06/29 09:08:26;;;;;;;;;;;22.40;72.60;;;;;;5110509;28;20544;-71
2023/06/29 09:10:52;;;;;;;;;;;22.40;72.50;;;;;;5110590;28;19965;-71
2023/06/29 09:13:18;;;;;;;;;;;22.50;72.40;;;;;;5109828;28;20265;-71
2023/06/29 09:15:44;;;;;;;;;;;22.60;72.40;;;;;;5109694;28;19937;-71
2023/06/29 09:18:10;;;;;;;;;;;22.60;72.40;;;;;;5110001;28;19922;-71
2023/06/29 09:20:36;;;;;;;;;;;22.60;72.70;;;;;;5109596;28;19912;-72
2023/06/29 09:23:04;;;;;;;;;;;22.60;72.40;;;;;;5110231;28;19916;-71
2023/06/29 09:25:30;;;;;;;;;;;22.60;72.30;;;;;;5108816;28;20014;-70
2023/06/29 09:28:05;;;;;;;;;;;22.70;72.30;;;;;;5110613;28;19981;-70
2023/06/29 09:30:33;;;;;;;;;;;22.70;72.10;;;;;;5110189;28;19912;-71
2023/06/29 09:33:04;;;;;;;;;;;22.70;72.20;;;;;;5110117;28;19920;-71
2023/06/29 09:35:29;;;;;;;;;;;22.70;72.40;;;;;;5109587;28;19938;-71
2023/06/29 09:37:55;;;;;;;;;;;22.80;72.20;;;;;;5108649;28;19912;-71
2023/06/29 09:40:20;;;;;;;;;;;22.80;71.90;;;;;;5110192;28;19912;-71
2023/06/29 09:42:46;;;;;;;;;;;22.80;72.60;;;;;;5102209;28;19965;-71
2023/06/29 09:45:12;;;;;;;;;;;22.80;72.10;;;;;;5089109;28;19916;-71
2023/06/29 09:47:40;;;;;;;;;;;22.80;72.00;;;;;;5089666;28;20536;-71
2023/06/29 09:50:16;;;;;;;;;;;22.80;71.90;;;;;;5108016;28;20369;-71
2023/06/29 09:52:45;;;;;;;;;;;22.90;71.90;;;;;;5109837;28;20279;-71
2023/06/29 09:55:11;;;;;;;;;;;22.90;71.80;;;;;;5109793;28;19933;-71
2023/06/29 09:57:39;;;;;;;;;;;22.90;71.80;;;;;;5109869;28;19908;-71
2023/06/29 10:00:09;;;;;;;;;;;23.00;71.70;;;;;;5109678;28;19959;-71
2023/06/29 10:02:35;;;;;;;;;;;22.90;71.70;;;;;;5109616;28;19958;-71
2023/06/29 10:05:00;;;;;;;;;;;22.90;71.90;;;;;;5109333;28;20611;-71
2023/06/29 10:07:26;;;;;;;;;;;22.90;71.80;;;;;;5109382;28;19976;-70
2023/06/29 10:09:53;;;;;;;;;;;22.90;72.00;;;;;;5109632;27;19915;-71
2023/06/29 10:12:22;;;;;;;;;;;22.90;71.90;;;;;;5102944;28;19968;-71
2023/06/29 10:14:48;;;;;;;;;;;22.90;72.00;;;;;;5109017;28;19912;-71
2023/06/29 10:17:27;;;;;;;;;;;22.90;72.00;;;;;;5119714;27;19961;-71
2023/06/29 10:19:53;;;;;;;;;;;22.90;72.00;;;;;;5130022;27;19918;-71
2023/06/29 10:22:20;;;;;;;;;;;22.90;72.10;;;;;;5129787;27;19915;-72
2023/06/29 10:24:54;;;;;;;;;;;22.90;72.10;;;;;;5129858;27;20395;-70
2023/06/29 10:27:20;;;;;;;;;;;22.90;72.00;;;;;;5129651;27;19966;-71
2023/06/29 10:29:46;;;;;;;;;;;22.90;72.20;;;;;;5128333;27;19916;-71
2023/06/29 10:32:30;;;;;;;;;;;22.90;72.10;;;;;;5125105;27;20606;-71
2023/06/29 10:35:03;;;;;;;;;;;22.90;72.00;;;;;;5087181;28;19951;-71
2023/06/29 10:37:29;;;;;;;;;;;23.00;72.50;;;;;;5088572;28;19961;-71
2023/06/29 10:39:56;;;;;;;;;;;23.00;72.90;;;;;;5088947;28;19919;-71
2023/06/29 10:42:21;;;;;;;;;;;23.00;72.40;;;;;;5095181;28;19916;-71
2023/06/29 10:44:47;;;;;;;;;;;23.10;72.20;;;;;;5088717;28;20376;-71
2023/06/29 10:47:31;;;;;;;;;;;23.10;72.10;;;;;;5088528;28;20520;-71
2023/06/29 10:50:17;;;;;;;;;;;23.10;72.00;;;;;;5088688;28;19912;-71
2023/06/29 10:52:43;;;;;;;;;;;23.20;71.90;;;;;;5088497;28;19912;-71
2023/06/29 10:55:18;;;;;;;;;;;23.30;71.90;;;;;;5088508;28;19920;-71
2023/06/29 10:57:53;;;;;;;;;;;23.30;72.10;;;;;;5088247;28;20643;-71
2023/06/29 11:00:19;;;;;;;;;;;23.40;71.70;;;;;;5088836;28;20269;-71
2023/06/29 11:02:46;;;;;;;;;;;23.40;71.50;;;;;;5095431;28;19911;-71
2023/06/29 11:05:19;;;;;;;;;;;23.60;71.50;;;;;;5108630;28;19981;-71
2023/06/29 11:07:45;;;;;;;;;;;23.70;72.40;;;;;;5108742;28;19916;-70
2023/06/29 11:10:11;;;;;;;;;;;23.70;71.20;;;;;;5108493;28;19911;-70
2023/06/29 11:12:40;;;;;;;;;;;23.70;71.20;;;;;;5102099;28;19915;-71
2023/06/29 11:15:12;;;;;;;;;;;23.80;71.00;;;;;;5108397;28;19915;-71
2023/06/29 11:17:38;;;;;;;;;;;23.90;71.20;;;;;;5108764;28;19931;-71
2023/06/29 11:20:05;;;;;;;;;;;23.90;71.00;;;;;;5108853;28;20614;-71
2023/06/29 11:22:31;;;;;;;;;;;24.10;70.80;;;;;;5108644;28;19915;-70
2023/06/29 11:24:57;;;;;;;;;;;24.20;70.30;;;;;;5108730;28;19925;-71
2023/06/29 11:27:22;;;;;;;;;;;24.30;69.90;;;;;;5108573;28;20292;-71
2023/06/29 11:29:57;;;;;;;;;;;24.40;70.00;;;;;;5108820;28;19912;-71
2023/06/29 11:32:24;;;;;;;;;;;24.50;69.60;;;;;;5108771;28;19954;-71
2023/06/29 11:34:57;;;;;;;;;;;24.60;69.50;;;;;;5108619;28;19911;-72
2023/06/29 11:37:23;;;;;;;;;;;24.70;69.60;;;;;;5108357;28;19908;-72
2023/06/29 11:39:49;;;;;;;;;;;24.80;69.40;;;;;;5108417;28;19908;-71
2023/06/29 11:42:17;;;;;;;;;;;24.80;69.10;;;;;;5105024;28;19958;-71
2023/06/29 11:44:42;;;;;;;;;;;24.90;69.00;;;;;;5088168;28;19912;-70
2023/06/29 11:47:08;;;;;;;;;;;25.00;69.00;;;;;;5086177;28;19924;-71
2023/06/29 11:49:34;;;;;;;;;;;25.00;68.90;;;;;;5105184;28;20049;-71
2023/06/29 11:52:02;;;;;;;;;;;25.00;68.90;;;;;;5106689;28;20006;-71
2023/06/29 11:54:29;;;;;;;;;;;25.10;69.10;;;;;;5108273;28;19919;-71
2023/06/29 11:56:55;;;;;;;;;;;25.00;68.90;;;;;;5107800;28;19919;-71
2023/06/29 11:59:20;;;;;;;;;;;25.10;68.90;;;;;;5108465;28;19912;-71
2023/06/29 12:01:47;;;;;;;;;;;25.10;69.00;;;;;;5106732;28;20273;-71
2023/06/29 12:04:15;;;;;;;;;;;25.10;69.10;;;;;;5107925;28;19911;-71
2023/06/29 12:06:50;;;;;;;;;;;25.10;69.30;;;;;;5106317;28;19995;-71
2023/06/29 12:09:16;;;;;;;;;;;25.10;69.30;;;;;;5111585;28;19912;-71
2023/06/29 12:11:41;;;;;;;;;;;25.10;69.50;;;;;;5110017;27;20445;-71
2023/06/29 12:14:10;;;;;;;;;;;25.00;69.50;;;;;;5119076;27;19918;-71
2023/06/29 12:16:42;;;;;;;;;;;24.90;69.80;;;;;;5111414;28;19947;-71
2023/06/29 12:19:11;;;;;;;;;;;24.90;70.20;;;;;;5111783;27;19945;-71
2023/06/29 12:21:36;;;;;;;;;;;24.80;70.40;;;;;;5111607;28;19912;-71
2023/06/29 12:24:03;;;;;;;;;;;24.80;70.60;;;;;;5111644;28;20288;-71
2023/06/29 12:26:28;;;;;;;;;;;24.70;70.80;;;;;;5111207;28;19939;-70
2023/06/29 12:28:54;;;;;;;;;;;24.70;71.10;;;;;;5111597;28;19947;-70
2023/06/29 12:31:27;;;;;;;;;;;24.60;71.20;;;;;;5110040;28;19916;-70
2023/06/29 12:33:53;;;;;;;;;;;24.50;71.30;;;;;;5111748;28;20310;-70
2023/06/29 12:36:22;;;;;;;;;;;24.40;71.50;;;;;;5111071;28;19907;-70
2023/06/29 12:38:48;;;;;;;;;;;24.40;71.70;;;;;;5111593;27;20325;-70
2023/06/29 12:41:13;;;;;;;;;;;24.30;71.90;;;;;;5111199;28;19919;-70
2023/06/29 12:43:39;;;;;;;;;;;24.20;72.20;;;;;;5111029;27;19911;-71
2023/06/29 12:46:04;;;;;;;;;;;24.20;72.60;;;;;;5110830;28;19911;-71
2023/06/29 12:48:30;;;;;;;;;;;24.10;72.70;;;;;;5111369;28;20002;-70
2023/06/29 12:50:59;;;;;;;;;;;24.10;73.10;;;;;;5111393;28;20384;-70
2023/06/29 12:53:25;;;;;;;;;;;24.20;73.20;;;;;;5111384;28;19919;-70
2023/06/29 12:55:51;;;;;;;;;;;24.10;73.30;;;;;;5110933;28;19911;-70
2023/06/29 12:58:16;;;;;;;;;;;24.10;73.20;;;;;;5110972;28;19994;-71
2023/06/29 13:00:42;;;;;;;;;;;24.10;73.70;;;;;;5110307;28;19919;-71
2023/06/29 13:03:11;;;;;;;;;;;24.10;74.20;;;;;;5110157;28;19912;-71
2023/06/29 13:05:43;;;;;;;;;;;24.20;73.90;;;;;;5109215;28;19957;-70
2023/06/29 13:08:09;;;;;;;;;;;24.20;73.10;;;;;;5109884;28;19961;-71
2023/06/29 13:10:34;;;;;;;;;;;24.30;73.20;;;;;;5110117;28;19915;-70
2023/06/29 13:13:00;;;;;;;;;;;24.40;73.30;;;;;;5103193;27;19920;-70
2023/06/29 13:15:25;;;;;;;;;;;24.40;72.70;;;;;;5109406;28;19912;-71
2023/06/29 13:17:51;;;;;;;;;;;24.50;73.10;;;;;;5109895;28;19966;-70
2023/06/29 13:20:17;;;;;;;;;;;24.50;72.80;;;;;;5109127;28;20282;-71
2023/06/29 13:22:43;;;;;;;;;;;24.50;72.90;;;;;;5109573;28;19920;-71
2023/06/29 13:25:09;;;;;;;;;;;24.50;72.80;;;;;;5109607;28;20241;-71
2023/06/29 13:27:36;;;;;;;;;;;24.50;72.50;;;;;;5109315;28;20007;-71
2023/06/29 13:30:02;;;;;;;;;;;24.50;72.60;;;;;;5109402;28;19907;-71
2023/06/29 13:32:29;;;;;;;;;;;24.50;72.60;;;;;;5108727;27;20406;-71
2023/06/29 13:34:55;;;;;;;;;;;24.50;72.70;;;;;;5109242;28;19999;-71
2023/06/29 13:37:22;;;;;;;;;;;24.40;72.60;;;;;;5109289;28;20040;-71
2023/06/29 13:39:47;;;;;;;;;;;24.50;72.90;;;;;;5108044;28;20000;-71
2023/06/29 13:42:15;;;;;;;;;;;24.50;73.00;;;;;;5104425;28;19951;-71
2023/06/29 13:44:41;;;;;;;;;;;24.50;72.80;;;;;;5087355;28;20337;-71
2023/06/29 13:47:07;;;;;;;;;;;24.50;72.90;;;;;;5104510;28;20021;-71
2023/06/29 13:49:32;;;;;;;;;;;24.50;72.90;;;;;;5109251;28;19949;-71
2023/06/29 13:51:58;;;;;;;;;;;24.50;72.90;;;;;;5107461;28;20486;-71
2023/06/29 13:54:23;;;;;;;;;;;24.50;72.80;;;;;;5108976;28;19919;-71
2023/06/29 13:56:49;;;;;;;;;;;24.50;73.00;;;;;;5108750;28;20028;-71
2023/06/29 13:59:15;;;;;;;;;;;24.50;72.90;;;;;;5108574;28;21205;-71
2023/06/29 14:01:41;;;;;;;;;;;24.50;72.90;;;;;;5108545;28;19933;-71
2023/06/29 14:04:07;;;;;;;;;;;24.50;73.00;;;;;;5105818;28;20262;-71
2023/06/29 14:06:37;;;;;;;;;;;24.50;72.80;;;;;;5108160;28;19932;-71
2023/06/29 14:09:04;;;;;;;;;;;24.50;72.80;;;;;;5109089;28;19908;-71
2023/06/29 14:11:30;;;;;;;;;;;24.60;72.70;;;;;;5108377;28;19920;-71